Pagina principale
METAR-TAF:

METAR-TAF

Aeroporti :

Chiredzi, Zimbabwe

latitudine: 21-01S, longitudine: 031-35E, altezza: 429 m

Osservazione

Il bollettino è stato emesso 18 ore e 10 minuti fa, alle 09:00 UTC
Vento 6 kt da sud-ovest
Temperature 34°C
Umidità 50%
Pressione 1015 hPa
Visibilità 10 km o più
nessuna nube inferiore a 1500 m e nessun cumulonembo

METAR: FVCZ 220900Z 22006KT CAVOK 34/22 Q1015

Ora: 05:10 (03:10 UTC)


TAF: mancante

Osservazioni e previsioni meteorologiche di più di 4000 aeroporti (messaggi METAR e TAF).

Le stazioni disponibili sono rappresentate dai dischi gialli e rossi sulla carta.

Puntare il mouse per vedere il nome della stazione.

Clicca sopra per visualizzare le osservazioni e previsioni meteorologiche.

Per cambiare la mappa : fare clic sui pulsanti verdi con una croce nera per ingrandire, il pulsante verde con un trattino per diminuire, o sulla freccia verde per le mappe adiacenti.


METAR-TAF: